Terminal Aerodrome Forecast
Issued by NWS Louisville, KY

Current Version | Previous Version | Text Only | Print | Product List | Glossary On
Versions: 1 2 3 4 5 6 7 8 9 10 11 12 13 14 15 16 17
000
FTUS43 KLMK 310500
TAFSDF
TAF
KSDF 310520Z 3106/0112 14004KT P6SM SCT250
     FM311600 20006KT P6SM OVC180
     FM010200 20006KT P6SM VCSH OVC050=

USA.gov is the U.S. government's official web portal to all federal, state and local government web resources and services.